LIMLTGPY

Guest
Details From LIML - Milano Linate
To TGPY - Point Salines Intl
Flight Number -
Tags Generated
Created
Modified
Stats Distance 4,098 nm / 7,589 km
Max Altitude 0 ft / 0 m
Waypoints 6
Social Downloads 1
Likes 0
Share VATSIM

Download

Looking for another format? Having issues loading an existing format? Contact us
Advertisement - Login to hide

Notes

Generated

Route

LIML AGREV BRS AV GNDNB TGPY

ID Type Via Altitude Latitude Longitude Leg Dist Tot Dist Heading (true) Name
O LIML APT - 0 ft / 0 m 45.45804˚ 9.26826˚ - 0 nm - -
AGREV FIX - 0 ft / 0 m 45.06417˚ 4.31750˚ 210 nm 210 nm 265° / 262° -
BRS NDB - 0 ft / 0 m 44.36528˚ -1.12889˚ 236 nm 446 nm 262° / 258° Biscarrosse Parentis NDB
AV NDB - 0 ft / 0 m 43.53908˚ -5.93053˚ 213 nm 660 nm 258° / 255° ASTURIAS NDB
GNDNB FIX - 0 ft / 0 m 12.00929˚ -61.78104˚ 3436 nm 4096 nm 254° / 226° -
O TGPY APT - 0 ft / 0 m 12.00430˚ -61.79881˚ 1 nm 4097 nm 254° / 254° -

Altitude Profile

Advertisement - Login to hide

Weather


0- 5 10 15 20 25 30 35+ Temperature / ° C

Clouds and Precipitation
Forecast for 2017-12-14 18:00 UTC. Updated 29 minutes ago

Ground ~20,000 ft ~40,000 ft Winds

LIML

Details ICAO LIML (LIN)
Name Milano Linate
Region Italy
Timezone Europe/Rome (UTC+1.0)
Stats Elevation 353 ft / 108 m (AMSL)
Location 45.450302° 9.272801°
Runways 2
Magnetic Variation 2.500° E

METAR

LIML 141720Z VRB02KT CAVOK 04/00 Q1004 NOSIG

Decode

TAF

TAF LIML 141100Z 1412/1512 VRB05KT 8000 SCT040 BECMG 1419/1422 4000 BR TEMPO 1502/1507 1200 BCFG

Decode

Departure Runways

ID Width Length Bearing (true) Bearing (mag) Surface Threshold Offset Overrun Length
17 72 ft / 22 m 1,975 ft / 602 m 175.64° 173.14° Asphalt 200 ft / 61 m 0 ft / 0 m
18 197 ft / 60 m 8,017 ft / 2,443 m 175.67° 173.17° Asphalt 0 ft / 0 m 190 ft / 58 m
35 72 ft / 22 m 1,975 ft / 602 m 355.64° 353.14° Asphalt 200 ft / 61 m 0 ft / 0 m
36 197 ft / 60 m 8,017 ft / 2,443 m 355.68° 353.18° Asphalt 0 ft / 0 m 980 ft / 299 m

TGPY

Details ICAO TGPY (GND)
Name Grenada/Bishop International
Region Grenada
Timezone America/Grenada (UTC-4.0)
Stats Elevation 41 ft / 12 m (AMSL)
Location 12.004247° -61.786192°
Runways 1
Magnetic Variation 14.799° W

METAR

TGPY 141700Z 13017KT 9999 FEW021 29/24 Q1014 NOSIG

Decode

TAF

Not found

Destination Runways

ID Width Length Bearing (true) Bearing (mag) Surface Threshold Offset Overrun Length
10 148 ft / 45 m 9,012 ft / 2,747 m 90.26° 105.06° Asphalt 0 ft / 0 m 0 ft / 0 m
28 148 ft / 45 m 9,012 ft / 2,747 m 270.26° 285.06° Asphalt 0 ft / 0 m 0 ft / 0 m